Terminal Aerodrome Forecast
Issued by NWS

Home | Current Version | Previous Version | Text Only | Print | Product List | Glossary On
Versions: 1 2 3 4 5 6 7 8 9 10 11 12 13 14 15 16 17 18 19 20 21 22 23
000
FTUS41 KGYX 020520
TAFRKD
TAF
KRKD 020520Z 0206/0306 VRB03KT 1/4SM FG OVC002
     FM021300 15005KT P6SM BKN020
     FM021500 17008KT P6SM BKN060
     FM030100 24004KT 4SM BR BKN020
     FM030500 27004KT 3SM -SHRA BR BKN020
      AMD LTD TO CLD VIS AND WIND=

USA.gov is the U.S. government's official web portal to all federal, state and local government web resources and services.